TimeMST,TemperatureF,Dew PointF,Humidity,Sea Level PressureIn,VisibilityMPH,Wind Direction,Wind SpeedMPH,Gust SpeedMPH,PrecipitationIn,Events,Conditions,WindDirDegrees,DateUTC
12:53 AM,32.0,21.9,66,30.21,10.0,SSE,5.8,-,N/A,,Clear,150,2013-01-25 07:53:00
1:53 AM,32.0,21.0,64,30.19,10.0,SE,6.9,-,N/A,,Clear,140,2013-01-25 08:53:00
2:53 AM,28.9,21.0,72,30.21,10.0,Calm,Calm,-,N/A,,Mostly Cloudy,0,2013-01-25 09:53:00
3:53 AM,28.9,21.9,75,30.18,10.0,West,8.1,-,N/A,,Mostly Cloudy,260,2013-01-25 10:53:00
4:53 AM,30.0,21.9,72,30.19,10.0,Calm,Calm,-,N/A,,Overcast,0,2013-01-25 11:53:00
5:53 AM,28.9,23.0,78,30.20,10.0,West,3.5,-,N/A,,Clear,260,2013-01-25 12:53:00
6:53 AM,28.9,21.9,75,30.20,10.0,Calm,Calm,-,N/A,,Clear,0,2013-01-25 13:53:00
7:53 AM,28.9,23.0,78,30.20,10.0,Calm,Calm,-,N/A,,Clear,0,2013-01-25 14:53:00
8:53 AM,30.0,23.0,75,30.20,10.0,Calm,Calm,-,N/A,,Clear,0,2013-01-25 15:53:00
9:53 AM,32.0,25.0,75,30.20,10.0,Calm,Calm,-,N/A,,Partly Cloudy,0,2013-01-25 16:53:00
10:53 AM,34.0,24.1,67,30.19,10.0,SW,3.5,-,N/A,,Clear,230,2013-01-25 17:53:00
11:53 AM,34.0,25.0,70,30.17,10.0,Calm,Calm,-,N/A,,Clear,0,2013-01-25 18:53:00
12:53 PM,36.0,26.1,67,30.14,10.0,WNW,3.5,-,N/A,,Clear,300,2013-01-25 19:53:00
1:53 PM,37.9,27.0,65,30.11,10.0,West,3.5,-,N/A,,Clear,280,2013-01-25 20:53:00
2:53 PM,39.0,27.0,62,30.10,10.0,Calm,Calm,-,N/A,,Overcast,0,2013-01-25 21:53:00
3:53 PM,39.0,28.0,65,30.09,10.0,Calm,Calm,-,N/A,,Mostly Cloudy,0,2013-01-25 22:53:00
4:53 PM,37.9,28.0,68,30.09,10.0,Calm,Calm,-,N/A,,Mostly Cloudy,0,2013-01-25 23:53:00
5:53 PM,36.0,28.9,76,30.09,10.0,West,5.8,-,N/A,,Mostly Cloudy,280,2013-01-26 00:53:00
6:53 PM,37.0,28.0,70,30.07,10.0,Calm,Calm,-,N/A,,Overcast,0,2013-01-26 01:53:00
7:53 PM,37.0,28.9,73,30.06,10.0,Calm,Calm,-,N/A,,Overcast,0,2013-01-26 02:53:00
8:53 PM,37.0,28.9,73,30.05,10.0,Calm,Calm,-,N/A,,Overcast,0,2013-01-26 03:53:00
9:53 PM,37.0,28.0,70,30.04,10.0,Calm,Calm,-,N/A,,Overcast,0,2013-01-26 04:53:00
10:53 PM,36.0,30.0,79,30.03,10.0,Calm,Calm,-,N/A,,Overcast,0,2013-01-26 05:53:00
11:53 PM,32.0,28.9,88,30.03,10.0,Calm,Calm,-,N/A,,Mostly Cloudy,0,2013-01-26 06:53:00